Flight Track Log - Related Links

Times and Time Zones

All times are in EDT time to prevent confusion due to time zone crossing. See the UPS1219 flight status page for this flight to view local times or setup timezone preferences in your user account.

Time Position Orientation Groundspeed Altitude Reporting Facility
EDT Latitude Longitude Course Direction KTS MPH feet Rate Location/Type
Fri 10:55:27 PM 38.9333 -77.5333 195° South 203 234 3,300  Level Potomac TRACON
Fri 10:57:38 PM 38.9050 -77.7203 259° West 254 292 8,500 2,540 Climbing Washington Center
Fri 10:58:36 PM 38.8928 -77.8158 261° West 266 306 11,300 3,000 Climbing Washington Center
Fri 10:59:38 PM 38.8803 -77.9331 262° West 300 345 14,500 3,344 Climbing Washington Center
Fri 11:00:00 PM 38.8271 -77.8793 195° South  Level FlightAware Approximate
Fri 11:00:38 PM 38.8694 -78.0606 264° West 340 391 18,100  Level Washington Center
Fri 11:01:38 PM 38.8561 -78.1961 263° West 368 423 21,400 3,200 Climbing Washington Center
Fri 11:02:38 PM 38.8528 -78.3372 268° West 388 447 24,500 2,650 Climbing Washington Center
Fri 11:03:38 PM 38.8394 -78.4619 262° West 394 453 26,700 2,300 Climbing Washington Center
Fri 11:04:38 PM 38.8153 -78.6075 258° West 411 473 29,100 1,765 Climbing Washington Center
Fri 11:05:37 PM 38.7906 -78.7506 258° West 411 473 30,200 1,462 Climbing Washington Center
Fri 11:06:37 PM 38.7681 -78.8933 259° West 411 473 32,000 893 Climbing Washington Center
Fri 11:07:38 PM 38.7456 -79.0253 258° West 401 461 32,000  Level Washington Center
Fri 11:08:36 PM 38.7228 -79.1600 258° West 396 456 32,000  Level Washington Center
Fri 11:09:38 PM 38.6992 -79.3186 259° West 401 461 32,000  Level Washington Center
Fri 11:10:36 PM 38.6761 -79.4556 258° West 406 467 32,000  Level Washington Center
Fri 11:11:37 PM 38.6531 -79.5928 258° West 406 467 32,000  Level Washington Center
Fri 11:12:38 PM 38.6317 -79.7297 259° West 406 467 32,000  Level Washington Center
Fri 11:13:38 PM 38.6147 -79.8564 260° West 411 473 32,000  Level Washington Center
Fri 11:14:37 PM 38.5972 -79.9961 261° West 406 467 32,000  Level Washington Center
Fri 11:15:37 PM 38.5775 -80.1331 260° West 406 467 32,000  Level Washington Center
Fri 11:16:38 PM 38.5569 -80.2858 260° West 406 467 32,000  Level Washington Center
Fri 11:17:32 PM 38.5417 -80.3911 260° West 398 458 32,000  Level Indianapolis Center
Fri 11:18:33 PM 38.5214 -80.5433 260° West 398 458 32,000  Level Indianapolis Center
Fri 11:19:35 PM 38.5028 -80.6819 260° West 397 457 32,000  Level Indianapolis Center
Fri 11:20:36 PM 38.4839 -80.8208 260° West 397 457 32,000  Level Indianapolis Center
Fri 11:21:37 PM 38.4647 -80.9597 260° West 396 456 32,000  Level Indianapolis Center
Fri 11:22:38 PM 38.4447 -81.1028 260° West 396 456 32,000  Level Indianapolis Center
Fri 11:23:39 PM 38.4258 -81.2383 260° West 396 456 32,000  Level Indianapolis Center
Fri 11:24:40 PM 38.4036 -81.3767 258° West 396 456 32,000  Level Indianapolis Center
Fri 11:25:41 PM 38.3772 -81.5133 256° West 395 455 32,000  Level Indianapolis Center
Fri 11:26:42 PM 38.3503 -81.6494 256° West 394 453 32,000  Level Indianapolis Center
Fri 11:27:43 PM 38.3236 -81.7853 256° West 393 452 32,000  Level Indianapolis Center
Fri 11:28:44 PM 38.2972 -81.9203 256° West 392 451 32,000  Level Indianapolis Center
Fri 11:29:45 PM 38.2706 -82.0550 256° West 392 451 32,000  Level Indianapolis Center
Fri 11:30:46 PM 38.2386 -82.2153 256° West 391 450 32,000  Level Indianapolis Center
Fri 11:31:47 PM 38.2119 -82.3481 256° West 389 448 32,000  Level Indianapolis Center
Fri 11:32:48 PM 38.1850 -82.4806 256° West 388 447 32,000  Level Indianapolis Center
Fri 11:33:49 PM 38.1611 -82.5978 256° West 387 445 32,000  Level Indianapolis Center
Fri 11:34:50 PM 38.1344 -82.7297 256° West 387 445 32,000  Level Indianapolis Center
Fri 11:35:51 PM 38.1025 -82.8847 255° West 388 447 32,000  Level Indianapolis Center
Fri 11:36:52 PM 38.0747 -83.0189 255° West 390 449 32,000  Level Indianapolis Center
Fri 11:37:53 PM 38.0467 -83.1531 255° West 392 451 32,000  Level Indianapolis Center
Fri 11:38:54 PM 38.0183 -83.2878 255° West 394 453 32,000  Level Indianapolis Center
Fri 11:39:54 PM 37.9900 -83.4228 255° West 395 455 32,000  Level Indianapolis Center
Fri 11:40:55 PM 37.9611 -83.5575 255° West 396 456 32,000 -1,297 Level Indianapolis Center
Fri 11:46:41 PM 37.8046 -84.2813 254° West 334 384 23,200 -1,581 Descending FlightAware ADS-B (KCVG)
Fri 11:46:48 PM 37.8020 -84.2929 254° West 334 384 22,700 -2,159 Descending FlightAware ADS-B (KCVG)
Fri 11:49:25 PM 37.7411 -84.5676 254° West 346 398 17,300 -2,054 Descending FlightAware ADS-B
Fri 11:50:30 PM 37.7077 -84.7173 255° West 335 386 15,100 -1,911 Descending FlightAware ADS-B
Fri 11:51:40 PM 37.6796 -84.8412 254° West 290 334 13,000 -1,809 Descending FlightAware ADS-B
Fri 11:52:46 PM 37.6597 -84.9401 276° West 280 322 11,000 -1,398 Descending FlightAware ADS-B
Fri 11:53:53 PM 37.7101 -85.0308 313° West 287 330 9,900 -1,039 Descending FlightAware ADS-B
Fri 11:54:53 PM 37.7470 -85.1163 291° West 277 319 8,800 -1,160 Descending FlightAware ADS-B
Fri 11:55:52 PM 37.7715 -85.1973 290° West 276 318 7,600 -1,263 Descending FlightAware ADS-B
Fri 11:56:47 PM 37.7997 -85.2924 290° West 272 313 6,400 -1,227 Descending FlightAware ADS-B
Fri 11:58:04 PM 37.8333 -85.4059 291° West 269 310 4,900 -993 Descending FlightAware ADS-B
Fri 11:59:18 PM 37.8639 -85.5091 290° West 264 304 3,900 -444 Descending FlightAware ADS-B
Sat 12:00:19 AM 37.8890 -85.5940 290° West 233 268 3,900  Level FlightAware ADS-B
Sat 12:00:29 AM 37.8938 -85.6072 302° West 236 272 3,900 -727 Level FlightAware ADS-B (EPWR / WRO)
Sat 12:01:25 AM 37.9343 -85.6544 317° Northwest 235 270 3,100 -513 Descending FlightAware ADS-B
Sat 12:02:26 AM 37.9925 -85.6854 346° North 216 249 2,900 -298 Descending FlightAware ADS-B
Sat 12:03:26 AM 38.0521 -85.7046 346° North 189 217 2,500 -667 Descending FlightAware ADS-B
Sat 12:04:32 AM 38.1029 -85.7213 346° North 145 167 1,500 -813 Descending FlightAware ADS-B
Sat 12:05:02 AM 38.1167 -85.7333 208° Southwest 134 154 1,200 -600 Descending Louisville TRACON
Sat 12:07:00 AM 38.1667 -85.7333 208° Southwest  Level FlightAware Approximate
Sat 12:10:00 AM 38.1667 -85.7333 208° Southwest  Level FlightAware Approximate

Login

Don't have an account? Register now (free) for customized features, flight alerts, and more!